createdAt,value
2023-02-15T00:00:28.284Z,3.928833008
2023-02-15T00:01:28.746Z,3.928833008
2023-02-15T00:02:29.254Z,3.948974609
2023-02-15T00:03:29.747Z,3.928833008
2023-02-15T00:04:30.160Z,3.948974609
2023-02-15T00:05:30.661Z,3.918762207
2023-02-15T00:06:31.086Z,3.888549805
2023-02-15T00:07:32.342Z,3.858337402
2023-02-15T00:08:32.917Z,3.858337402
2023-02-15T00:09:33.410Z,3.878479004
2023-02-15T00:10:34.512Z,3.888549805
2023-02-15T00:11:35.055Z,3.898620605
2023-02-15T00:12:35.554Z,3.898620605
2023-02-15T00:13:36.166Z,3.928833008
2023-02-15T00:14:36.690Z,3.95904541
2023-02-15T00:15:37.278Z,3.948974609
2023-02-15T00:16:37.875Z,3.918762207
2023-02-15T00:17:39.040Z,3.888549805
2023-02-15T00:18:40.265Z,3.858337402
2023-02-15T00:19:41.250Z,3.838195801
2023-02-15T00:20:41.733Z,3.807983398
2023-02-15T00:21:42.177Z,3.838195801
2023-02-15T00:22:43.315Z,3.888549805
2023-02-15T00:23:43.940Z,3.898620605
2023-02-15T00:24:44.411Z,3.918762207
2023-02-15T00:25:44.979Z,3.928833008
2023-02-15T00:26:45.601Z,3.898620605
2023-02-15T00:27:46.791Z,3.948974609
2023-02-15T00:28:47.283Z,3.928833008
2023-02-15T00:29:47.832Z,3.918762207
2023-02-15T00:30:48.724Z,3.918762207
2023-02-15T00:31:49.276Z,3.918762207
2023-02-15T00:32:49.636Z,3.888549805
2023-02-15T00:33:50.129Z,3.898620605
2023-02-15T00:34:50.630Z,3.888549805
2023-02-15T00:35:51.116Z,3.858337402
2023-02-15T00:36:51.597Z,3.838195801
2023-02-15T00:37:52.774Z,3.807983398
2023-02-15T00:38:53.299Z,3.777770996
2023-02-15T00:39:53.978Z,3.747558594
2023-02-15T00:40:54.517Z,3.777770996
2023-02-15T00:41:54.948Z,3.818054199
2023-02-15T00:42:55.485Z,3.838195801
2023-02-15T00:44:27.270Z,3.838195801
2023-02-15T00:45:27.833Z,3.858337402
2023-02-15T00:46:28.372Z,3.858337402
2023-02-15T00:47:28.846Z,3.858337402
2023-02-15T00:48:30.006Z,3.858337402
2023-02-15T00:49:30.398Z,3.878479004
2023-02-15T00:50:30.912Z,3.878479004
2023-02-15T00:51:31.486Z,3.858337402
2023-02-15T00:52:32.036Z,3.807983398
2023-02-15T00:53:32.585Z,3.797912598
2023-02-15T00:54:33.011Z,3.797912598
2023-02-15T00:55:33.534Z,3.797912598
2023-02-15T00:56:34.044Z,3.807983398
2023-02-15T00:57:35.379Z,3.747558594
2023-02-15T00:58:36.763Z,3.747558594
2023-02-15T00:59:37.263Z,3.797912598
2023-02-15T01:00:37.726Z,3.818054199
2023-02-15T01:01:38.198Z,3.818054199
2023-02-15T01:02:38.747Z,3.807983398
2023-02-15T01:03:39.198Z,3.797912598
2023-02-15T01:04:39.745Z,3.767700195
2023-02-15T01:05:40.103Z,3.707275391
2023-02-15T01:06:40.846Z,3.666992188
2023-02-15T01:07:41.353Z,3.626708984
2023-02-15T01:08:41.820Z,3.626708984
2023-02-15T01:09:42.320Z,3.69720459
2023-02-15T01:10:42.864Z,3.677062988
2023-02-15T01:11:43.298Z,3.69720459
2023-02-15T01:12:43.789Z,3.677062988
2023-02-15T01:13:44.332Z,3.677062988
2023-02-15T01:14:44.782Z,3.677062988
2023-02-15T01:15:45.301Z,3.677062988
2023-02-15T01:16:45.757Z,3.677062988
2023-02-15T01:17:46.883Z,3.707275391
2023-02-15T01:18:47.411Z,3.707275391
2023-02-15T01:19:48.784Z,3.717346191
2023-02-15T01:20:49.291Z,3.737487793
2023-02-15T01:21:49.687Z,3.737487793
2023-02-15T01:22:50.087Z,3.69720459
2023-02-15T01:23:50.639Z,3.707275391
2023-02-15T01:24:51.143Z,3.69720459
2023-02-15T01:25:51.579Z,3.666992188
2023-02-15T01:26:52.155Z,3.616638184
2023-02-15T01:27:53.285Z,3.56628418
2023-02-15T01:28:53.832Z,3.56628418
2023-02-15T01:29:54.452Z,3.56628418
2023-02-15T01:30:55.050Z,3.586425781
2023-02-15T01:32:26.826Z,3.616638184
2023-02-15T01:33:27.268Z,3.677062988
2023-02-15T01:34:27.730Z,3.677062988
2023-02-15T01:35:28.308Z,3.636779785
2023-02-15T01:36:28.781Z,3.626708984
2023-02-15T01:37:29.289Z,3.596496582
2023-02-15T01:38:30.480Z,3.596496582
2023-02-15T01:39:30.946Z,3.56628418
2023-02-15T01:40:31.494Z,3.56628418
2023-02-15T01:41:31.943Z,3.56628418
2023-02-15T01:42:32.412Z,3.596496582
2023-02-15T01:43:32.848Z,3.586425781
2023-02-15T01:44:33.274Z,3.56628418
2023-02-15T01:45:33.804Z,3.616638184
2023-02-15T01:46:34.313Z,3.596496582
2023-02-15T01:47:35.315Z,3.586425781
2023-02-15T01:48:36.777Z,3.536071777
2023-02-15T01:49:37.180Z,3.526000977
2023-02-15T01:50:37.732Z,3.485717773
2023-02-15T01:51:38.317Z,3.455505371
2023-02-15T01:52:38.760Z,3.43536377
2023-02-15T01:53:39.206Z,3.415222168
2023-02-15T01:54:39.708Z,3.44543457
2023-02-15T01:55:40.854Z,3.455505371
2023-02-15T01:56:41.341Z,3.455505371
2023-02-15T01:57:41.799Z,3.455505371
2023-02-15T01:58:43.007Z,3.455505371
2023-02-15T01:59:43.423Z,3.43536377
2023-02-15T02:00:43.938Z,3.415222168
2023-02-15T02:01:44.426Z,3.405151367
2023-02-15T02:02:44.895Z,3.354797363
2023-02-15T02:03:45.340Z,3.334655762
2023-02-15T02:04:45.817Z,3.31451416
2023-02-15T02:05:46.269Z,3.264160156
2023-02-15T02:06:46.825Z,3.284301758
2023-02-15T02:07:47.311Z,3.264160156
2023-02-15T02:08:48.491Z,3.284301758
2023-02-15T02:09:49.009Z,3.254089355
2023-02-15T02:10:49.408Z,3.264160156
2023-02-15T02:11:49.936Z,3.254089355
2023-02-15T02:12:50.409Z,3.254089355
2023-02-15T02:13:50.877Z,3.233947754
2023-02-15T02:14:51.329Z,3.304443359
2023-02-15T02:15:51.849Z,3.284301758
2023-02-15T02:16:52.304Z,3.31451416
2023-02-15T02:17:53.287Z,3.304443359
2023-02-15T02:18:54.270Z,3.304443359
2023-02-15T02:20:25.331Z,3.334655762
2023-02-15T02:21:25.753Z,3.334655762
2023-02-15T02:22:26.354Z,3.374938965
2023-02-15T02:23:26.840Z,3.385009766
2023-02-15T02:24:27.271Z,3.385009766
2023-02-15T02:25:27.809Z,3.405151367
2023-02-15T02:26:28.266Z,3.385009766
2023-02-15T02:27:28.791Z,3.385009766
2023-02-15T02:28:29.791Z,3.344726563
2023-02-15T02:29:30.271Z,3.374938965
2023-02-15T02:30:30.909Z,3.354797363
2023-02-15T02:31:31.296Z,3.334655762
2023-02-15T02:32:31.778Z,3.31451416
2023-02-15T02:33:32.239Z,3.31451416
2023-02-15T02:34:32.731Z,3.334655762
2023-02-15T02:35:33.204Z,3.31451416
2023-02-15T02:36:33.637Z,3.374938965
2023-02-15T02:37:34.153Z,3.344726563
2023-02-15T02:38:35.287Z,3.334655762
2023-02-15T02:39:35.695Z,3.304443359
2023-02-15T02:40:36.178Z,3.334655762
2023-02-15T02:41:36.610Z,3.31451416
2023-02-15T02:42:37.027Z,3.344726563
2023-02-15T02:43:37.585Z,3.334655762
2023-02-15T02:44:38.014Z,3.334655762
2023-02-15T02:45:38.555Z,3.304443359
2023-02-15T02:46:39.096Z,3.264160156
2023-02-15T02:47:39.512Z,3.233947754
2023-02-15T02:48:40.787Z,3.193664551
2023-02-15T02:49:41.219Z,3.163452148
2023-02-15T02:50:41.776Z,3.123168945
2023-02-15T02:51:42.243Z,3.103027344
2023-02-15T02:52:42.661Z,3.153381348
2023-02-15T02:53:43.223Z,3.153381348
2023-02-15T02:54:43.666Z,3.153381348
2023-02-15T02:55:44.128Z,3.193664551
2023-02-15T02:56:44.606Z,3.223876953
2023-02-15T02:57:45.024Z,3.203735352
2023-02-15T02:58:46.318Z,3.193664551
2023-02-15T02:59:46.805Z,3.193664551
2023-02-15T03:00:47.326Z,3.133239746
2023-02-15T03:01:47.990Z,3.133239746
2023-02-15T03:02:48.439Z,3.133239746
2023-02-15T03:03:48.934Z,3.133239746
2023-02-15T03:04:49.371Z,3.163452148
2023-02-15T03:05:49.818Z,3.203735352
2023-02-15T03:06:50.307Z,3.193664551
2023-02-15T03:07:50.714Z,3.193664551
2023-02-15T03:08:51.843Z,3.163452148
2023-02-15T03:09:52.206Z,3.153381348
2023-02-15T03:10:52.622Z,3.133239746
2023-02-15T03:11:53.152Z,3.133239746
2023-02-15T03:12:53.596Z,3.082885742
2023-02-15T03:14:24.572Z,3.082885742
2023-02-15T03:15:25.043Z,3.042602539
2023-02-15T03:16:25.501Z,3.082885742
2023-02-15T03:17:25.926Z,3.123168945
2023-02-15T03:18:26.996Z,3.123168945
2023-02-15T03:19:27.452Z,3.123168945
2023-02-15T03:20:27.915Z,3.103027344
2023-02-15T03:21:28.331Z,3.103027344
2023-02-15T03:22:28.927Z,3.103027344
2023-02-15T03:23:29.292Z,3.082885742
2023-02-15T03:24:29.771Z,3.082885742
2023-02-15T03:25:30.298Z,3.042602539
2023-02-15T03:26:30.702Z,3.022460938
2023-02-15T03:27:31.181Z,2.992248535
2023-02-15T03:28:31.641Z,2.982177734
2023-02-15T03:29:32.988Z,2.992248535
2023-02-15T03:30:33.511Z,3.012390137
2023-02-15T03:31:34.047Z,2.992248535
2023-02-15T03:32:34.425Z,3.022460938
2023-02-15T03:33:34.851Z,3.022460938
2023-02-15T03:34:35.275Z,2.992248535
2023-02-15T03:35:35.770Z,2.972106934
2023-02-15T03:36:36.231Z,2.951965332
2023-02-15T03:37:37.502Z,2.941894531
2023-02-15T03:38:38.035Z,2.941894531
2023-02-15T03:39:39.473Z,2.941894531
2023-02-15T03:40:39.898Z,2.972106934
2023-02-15T03:41:40.719Z,2.951965332
2023-02-15T03:42:41.191Z,2.941894531
2023-02-15T03:43:41.588Z,2.901611328
2023-02-15T03:44:42.033Z,2.972106934
2023-02-15T03:45:42.463Z,2.972106934
2023-02-15T03:46:42.922Z,3.022460938
2023-02-15T03:47:43.332Z,3.042602539
2023-02-15T03:48:44.491Z,3.022460938
2023-02-15T03:49:44.973Z,3.022460938
2023-02-15T03:50:46.006Z,3.042602539
2023-02-15T03:51:46.486Z,3.072814941
2023-02-15T03:52:46.972Z,3.103027344
2023-02-15T03:53:47.420Z,3.103027344
2023-02-15T03:54:47.925Z,3.123168945
2023-02-15T03:55:48.355Z,3.103027344
2023-02-15T03:56:48.810Z,3.123168945
2023-02-15T03:57:49.262Z,3.103027344
2023-02-15T03:58:49.681Z,3.123168945
2023-02-15T03:59:50.972Z,3.153381348
2023-02-15T04:00:51.531Z,3.173522949
2023-02-15T04:01:51.960Z,3.173522949
2023-02-15T04:02:52.494Z,3.193664551
2023-02-15T04:03:52.831Z,3.173522949
2023-02-15T04:05:23.881Z,3.163452148
2023-02-15T04:06:24.415Z,3.123168945
2023-02-15T04:07:24.826Z,3.072814941
2023-02-15T04:08:25.308Z,3.022460938
2023-02-15T04:09:26.770Z,2.992248535
2023-02-15T04:10:27.179Z,2.972106934
2023-02-15T04:11:27.737Z,2.941894531
2023-02-15T04:12:28.172Z,2.951965332
2023-02-15T04:13:28.659Z,2.941894531
2023-02-15T04:14:29.107Z,2.92175293
2023-02-15T04:15:29.530Z,2.941894531
2023-02-15T04:16:31.297Z,2.941894531
2023-02-15T04:17:30.417Z,2.941894531
2023-02-15T04:18:30.932Z,2.941894531
2023-02-15T04:19:32.280Z,2.92175293
2023-02-15T04:20:32.668Z,2.891540527
2023-02-15T04:21:33.182Z,2.871398926
2023-02-15T04:22:33.604Z,2.861328125
2023-02-15T04:23:34.134Z,2.831115723
2023-02-15T04:24:34.587Z,2.831115723
2023-02-15T04:25:35.041Z,2.80090332
2023-02-15T04:26:35.521Z,2.831115723
2023-02-15T04:27:35.979Z,2.831115723
2023-02-15T04:28:36.412Z,2.841186523
2023-02-15T04:29:37.769Z,2.841186523
2023-02-15T04:30:38.204Z,2.871398926
2023-02-15T04:31:38.825Z,2.871398926
2023-02-15T04:32:39.140Z,2.871398926
2023-02-15T04:33:39.629Z,2.891540527
2023-02-15T04:34:40.113Z,2.901611328
2023-02-15T04:35:40.746Z,2.891540527
2023-02-15T04:36:41.176Z,2.891540527
2023-02-15T04:37:41.592Z,2.891540527
2023-02-15T04:38:42.150Z,2.891540527
2023-02-15T04:39:43.466Z,2.891540527
2023-02-15T04:40:44.800Z,2.901611328
2023-02-15T04:41:45.198Z,2.891540527
2023-02-15T04:42:45.626Z,2.871398926
2023-02-15T04:43:46.196Z,2.871398926
2023-02-15T04:44:46.600Z,2.841186523
2023-02-15T04:45:47.120Z,2.861328125
2023-02-15T04:46:47.533Z,2.80090332
2023-02-15T04:47:47.959Z,2.831115723
2023-02-15T04:48:49.083Z,2.810974121
2023-02-15T04:49:49.470Z,2.831115723
2023-02-15T04:50:49.976Z,2.841186523
2023-02-15T04:51:50.453Z,2.861328125
2023-02-15T04:52:50.897Z,2.901611328
2023-02-15T04:53:51.408Z,2.871398926
2023-02-15T04:54:51.857Z,2.891540527
2023-02-15T04:55:52.269Z,2.810974121
2023-02-15T04:57:23.352Z,2.810974121
2023-02-15T04:58:23.763Z,2.79083252
2023-02-15T04:59:24.335Z,2.79083252
2023-02-15T05:00:25.276Z,2.810974121
2023-02-15T05:01:25.768Z,2.80090332
2023-02-15T05:02:26.129Z,2.770690918
2023-02-15T05:03:26.549Z,2.810974121
2023-02-15T05:04:27.228Z,2.841186523
2023-02-15T05:05:27.524Z,2.891540527
2023-02-15T05:06:28.015Z,2.891540527
2023-02-15T05:07:28.497Z,2.891540527
2023-02-15T05:08:29.094Z,2.861328125
2023-02-15T05:09:30.254Z,2.871398926
2023-02-15T05:10:30.905Z,2.871398926
2023-02-15T05:11:32.386Z,2.841186523
2023-02-15T05:12:32.870Z,2.841186523
2023-02-15T05:13:33.347Z,2.861328125
2023-02-15T05:14:33.896Z,2.861328125
2023-02-15T05:15:34.448Z,2.861328125
2023-02-15T05:16:34.871Z,2.841186523
2023-02-15T05:17:35.651Z,2.871398926
2023-02-15T05:18:36.773Z,2.841186523
2023-02-15T05:19:37.820Z,2.810974121
2023-02-15T05:20:38.220Z,2.80090332
2023-02-15T05:21:38.617Z,2.841186523
2023-02-15T05:22:39.148Z,2.841186523
2023-02-15T05:23:39.572Z,2.80090332
2023-02-15T05:24:40.055Z,2.79083252
2023-02-15T05:25:40.740Z,2.831115723
2023-02-15T05:26:41.184Z,2.80090332
2023-02-15T05:27:41.728Z,2.770690918
2023-02-15T05:28:42.158Z,2.730407715
2023-02-15T05:29:43.351Z,2.740478516
2023-02-15T05:30:44.004Z,2.710266113
2023-02-15T05:31:44.430Z,2.690124512
2023-02-15T05:32:44.939Z,2.680053711
2023-02-15T05:33:45.210Z,2.710266113
2023-02-15T05:34:45.715Z,2.710266113
2023-02-15T05:35:46.116Z,2.740478516
2023-02-15T05:36:46.523Z,2.770690918
2023-02-15T05:37:47.000Z,2.80090332
2023-02-15T05:38:47.416Z,2.79083252
2023-02-15T05:39:48.786Z,2.770690918
2023-02-15T05:40:50.196Z,2.770690918
2023-02-15T05:41:49.726Z,2.770690918
2023-02-15T05:42:50.197Z,2.770690918
2023-02-15T05:43:50.624Z,2.760620117
2023-02-15T05:44:51.134Z,2.740478516
2023-02-15T05:45:51.584Z,2.760620117
2023-02-15T05:47:22.652Z,2.740478516
2023-02-15T05:48:23.183Z,2.710266113
2023-02-15T05:49:24.453Z,2.760620117
2023-02-15T05:50:25.513Z,2.760620117
2023-02-15T05:51:25.935Z,2.760620117
2023-02-15T05:52:26.382Z,2.79083252
2023-02-15T05:53:26.818Z,2.770690918
2023-02-15T05:54:27.258Z,2.740478516
2023-02-15T05:55:27.690Z,2.740478516
2023-02-15T05:56:28.124Z,2.710266113
2023-02-15T05:57:28.545Z,2.680053711
2023-02-15T05:58:29.037Z,2.649841309
2023-02-15T05:59:29.467Z,2.710266113
2023-02-15T06:00:29.977Z,2.760620117
2023-02-15T06:01:30.447Z,2.730407715
2023-02-15T06:02:30.873Z,2.690124512
2023-02-15T06:03:31.397Z,2.680053711
2023-02-15T06:04:31.883Z,2.680053711
2023-02-15T06:05:32.318Z,2.710266113
2023-02-15T06:06:32.825Z,2.659912109
2023-02-15T06:07:33.258Z,2.659912109
2023-02-15T06:08:33.685Z,2.690124512
2023-02-15T06:09:34.126Z,2.680053711
2023-02-15T06:10:34.594Z,2.629699707
2023-02-15T06:11:35.072Z,2.629699707
2023-02-15T06:12:35.480Z,2.649841309
2023-02-15T06:13:38.597Z,2.629699707
2023-02-15T06:14:36.485Z,2.629699707
2023-02-15T06:15:36.999Z,2.629699707
2023-02-15T06:16:37.415Z,2.649841309
2023-02-15T06:17:37.870Z,2.619628906
2023-02-15T06:18:38.294Z,2.589416504
2023-02-15T06:19:39.594Z,2.589416504
2023-02-15T06:20:40.056Z,2.589416504
2023-02-15T06:21:41.035Z,2.589416504
2023-02-15T06:22:41.448Z,2.589416504
2023-02-15T06:23:41.935Z,2.589416504
2023-02-15T06:24:42.381Z,2.559204102
2023-02-15T06:25:42.826Z,2.579345703
2023-02-15T06:26:43.432Z,2.579345703
2023-02-15T06:27:43.882Z,2.579345703
2023-02-15T06:28:44.378Z,2.579345703
2023-02-15T06:29:44.832Z,2.579345703
2023-02-15T06:30:46.047Z,2.549133301
2023-02-15T06:31:46.647Z,2.508850098
2023-02-15T06:32:46.964Z,2.528991699
2023-02-15T06:33:47.496Z,2.508850098
2023-02-15T06:34:48.940Z,2.589416504
2023-02-15T06:35:48.431Z,2.589416504
2023-02-15T06:36:48.905Z,2.609558105
2023-02-15T06:37:49.373Z,2.619628906
2023-02-15T06:38:49.935Z,2.629699707
2023-02-15T06:39:50.461Z,2.649841309
2023-02-15T06:41:22.060Z,2.690124512
2023-02-15T06:42:22.502Z,2.690124512
2023-02-15T06:43:23.014Z,2.730407715
2023-02-15T06:44:23.547Z,2.690124512
2023-02-15T06:45:23.967Z,2.690124512
2023-02-15T06:46:24.598Z,2.690124512
2023-02-15T06:47:24.907Z,2.659912109
2023-02-15T06:48:25.373Z,2.619628906
2023-02-15T06:49:25.902Z,2.609558105
2023-02-15T06:50:27.277Z,2.589416504
2023-02-15T06:51:27.814Z,2.579345703
2023-02-15T06:52:28.234Z,2.549133301
2023-02-15T06:53:28.645Z,2.508850098
2023-02-15T06:54:29.174Z,2.528991699
2023-02-15T06:55:29.620Z,2.498779297
2023-02-15T06:56:30.157Z,2.528991699
2023-02-15T06:57:30.607Z,2.609558105
2023-02-15T06:58:31.037Z,2.629699707
2023-02-15T06:59:31.580Z,2.649841309
2023-02-15T07:00:32.845Z,2.690124512
2023-02-15T07:01:33.308Z,2.740478516
2023-02-15T07:02:33.961Z,2.760620117
2023-02-15T07:03:34.496Z,2.740478516
2023-02-15T07:04:35.016Z,2.710266113
2023-02-15T07:05:35.546Z,2.680053711
2023-02-15T07:06:36.310Z,2.659912109
2023-02-15T07:07:36.854Z,2.680053711
2023-02-15T07:08:37.306Z,2.680053711
2023-02-15T07:09:37.761Z,2.680053711
2023-02-15T07:10:39.274Z,2.680053711
2023-02-15T07:11:39.761Z,2.690124512
2023-02-15T07:12:40.289Z,2.710266113
2023-02-15T07:13:41.467Z,2.710266113
2023-02-15T07:14:41.994Z,2.730407715
2023-02-15T07:15:42.577Z,2.730407715
2023-02-15T07:16:43.027Z,2.710266113
2023-02-15T07:17:43.544Z,2.730407715
2023-02-15T07:18:44.154Z,2.690124512
2023-02-15T07:19:45.028Z,2.710266113
2023-02-15T07:20:46.282Z,2.730407715
2023-02-15T07:21:46.795Z,2.730407715
2023-02-15T07:22:47.295Z,2.730407715
2023-02-15T07:23:47.752Z,2.740478516
2023-02-15T07:24:48.261Z,2.770690918
2023-02-15T07:25:49.279Z,2.80090332
2023-02-15T07:26:49.786Z,2.810974121
2023-02-15T07:27:50.234Z,2.80090332
2023-02-15T07:28:51.791Z,2.79083252
2023-02-15T07:30:22.592Z,2.831115723
2023-02-15T07:31:23.072Z,2.92175293
2023-02-15T07:32:23.619Z,3.05267334
2023-02-15T07:33:24.031Z,3.103027344
2023-02-15T07:34:24.789Z,3.163452148
2023-02-15T07:35:25.425Z,3.173522949
2023-02-15T07:36:26.122Z,3.223876953
2023-02-15T07:37:26.683Z,3.284301758
2023-02-15T07:38:27.748Z,3.284301758
2023-02-15T07:39:28.365Z,3.31451416
2023-02-15T07:40:28.892Z,3.334655762
2023-02-15T07:41:30.189Z,3.415222168
2023-02-15T07:42:30.757Z,3.43536377
2023-02-15T07:43:32.169Z,3.495788574
2023-02-15T07:44:32.671Z,3.526000977
2023-02-15T07:45:33.128Z,3.515930176
2023-02-15T07:46:33.742Z,3.515930176
2023-02-15T07:47:34.132Z,3.455505371
2023-02-15T07:48:34.663Z,3.495788574
2023-02-15T07:49:35.114Z,3.526000977
2023-02-15T07:50:36.255Z,3.536071777
2023-02-15T07:51:36.754Z,3.616638184
2023-02-15T07:52:37.783Z,3.636779785
2023-02-15T07:53:38.276Z,3.677062988
2023-02-15T07:54:38.710Z,3.666992188
2023-02-15T07:55:39.793Z,3.636779785
2023-02-15T07:56:40.251Z,3.636779785
2023-02-15T07:57:40.853Z,3.636779785
2023-02-15T07:58:41.396Z,3.666992188
2023-02-15T07:59:41.873Z,3.677062988
2023-02-15T08:00:42.295Z,3.717346191
2023-02-15T08:01:43.545Z,3.777770996
2023-02-15T08:02:44.113Z,3.807983398
2023-02-15T08:03:44.668Z,3.878479004
2023-02-15T08:04:45.073Z,3.928833008
2023-02-15T08:05:45.493Z,3.95904541
2023-02-15T08:06:45.973Z,3.989257813
2023-02-15T08:07:46.438Z,3.999328613
2023-02-15T08:08:47.110Z,4.039611816
2023-02-15T08:09:47.597Z,4.07989502
2023-02-15T08:10:48.804Z,4.140319824
2023-02-15T08:11:49.303Z,4.140319824
2023-02-15T08:12:49.761Z,4.170532227
2023-02-15T08:13:50.796Z,4.21081543
2023-02-15T08:15:21.459Z,4.241027832
2023-02-15T08:16:22.065Z,4.311523438
2023-02-15T08:17:22.640Z,4.34173584
2023-02-15T08:18:23.090Z,4.321594238
2023-02-15T08:19:23.560Z,4.311523438
2023-02-15T08:20:24.753Z,4.34173584
2023-02-15T08:21:25.815Z,4.382019043
2023-02-15T08:22:26.269Z,4.432373047
2023-02-15T08:23:26.786Z,4.442443848
2023-02-15T08:24:27.463Z,4.442443848
2023-02-15T08:25:28.024Z,4.442443848
2023-02-15T08:26:28.460Z,4.462585449
2023-02-15T08:27:29.098Z,4.442443848
2023-02-15T08:28:29.615Z,4.442443848
2023-02-15T08:29:30.038Z,4.442443848
2023-02-15T08:30:30.702Z,4.492797852
2023-02-15T08:31:31.918Z,4.512939453
2023-02-15T08:32:32.277Z,4.533081055
2023-02-15T08:33:32.751Z,4.563293457
2023-02-15T08:34:33.245Z,4.573364258
2023-02-15T08:35:33.779Z,4.593505859
2023-02-15T08:36:34.197Z,4.653930664
2023-02-15T08:37:34.671Z,4.674072266
2023-02-15T08:38:35.233Z,4.684143066
2023-02-15T08:39:35.684Z,4.72442627
2023-02-15T08:40:36.228Z,4.754638672
2023-02-15T08:41:37.465Z,4.804992676
2023-02-15T08:42:37.921Z,4.804992676
2023-02-15T08:43:38.510Z,4.835205078
2023-02-15T08:44:38.964Z,4.875488281
2023-02-15T08:45:39.550Z,4.905700684
2023-02-15T08:46:39.968Z,4.925842285
2023-02-15T08:47:40.679Z,4.966125488
2023-02-15T08:48:41.141Z,4.98626709
2023-02-15T08:49:41.611Z,5.016479492
2023-02-15T08:50:42.108Z,5.016479492
2023-02-15T08:51:43.483Z,5.046691895
2023-02-15T08:52:43.976Z,5.046691895
2023-02-15T08:53:44.528Z,5.107116699
2023-02-15T08:54:45.005Z,5.137329102
2023-02-15T08:55:45.444Z,5.137329102
2023-02-15T08:56:46.068Z,5.1171875
2023-02-15T08:57:46.636Z,5.137329102
2023-02-15T08:58:47.273Z,5.147399902
2023-02-15T08:59:47.762Z,5.167541504
2023-02-15T09:00:48.375Z,5.187683105
2023-02-15T09:01:49.701Z,5.197753906
2023-02-15T09:03:20.697Z,5.197753906
2023-02-15T09:04:21.172Z,5.197753906
2023-02-15T09:05:21.783Z,5.197753906
2023-02-15T09:06:22.224Z,5.238037109
2023-02-15T09:07:22.698Z,5.288391113
2023-02-15T09:08:23.317Z,5.298461914
2023-02-15T09:09:23.887Z,5.298461914
2023-02-15T09:10:24.347Z,5.298461914
2023-02-15T09:11:25.778Z,5.298461914
2023-02-15T09:12:26.285Z,5.298461914
2023-02-15T09:13:26.747Z,5.328674316
2023-02-15T09:14:27.274Z,5.348815918
2023-02-15T09:15:27.783Z,5.36895752
2023-02-15T09:16:28.440Z,5.399169922
2023-02-15T09:17:28.960Z,5.419311523
2023-02-15T09:18:29.394Z,5.419311523
2023-02-15T09:19:29.920Z,5.479736328
2023-02-15T09:20:31.302Z,5.489807129
2023-02-15T09:21:32.783Z,5.489807129
2023-02-15T09:22:33.222Z,5.489807129
2023-02-15T09:23:33.706Z,5.50994873
2023-02-15T09:24:34.227Z,5.520019531
2023-02-15T09:25:34.866Z,5.50994873
2023-02-15T09:26:35.398Z,5.520019531
2023-02-15T09:27:35.841Z,5.550231934
2023-02-15T09:28:36.364Z,5.560302734
2023-02-15T09:29:36.887Z,5.580444336
2023-02-15T09:30:37.628Z,5.580444336
2023-02-15T09:31:38.789Z,5.590515137
2023-02-15T09:32:39.338Z,5.600585938
2023-02-15T09:33:40.028Z,5.620727539
2023-02-15T09:34:40.690Z,5.63079834
2023-02-15T09:35:41.153Z,5.63079834
2023-02-15T09:36:42.636Z,5.650939941
2023-02-15T09:37:43.145Z,5.661010742
2023-02-15T09:38:43.606Z,5.650939941
2023-02-15T09:39:44.167Z,5.661010742
2023-02-15T09:40:44.772Z,5.661010742
2023-02-15T09:41:45.748Z,5.671081543
2023-02-15T09:42:46.305Z,5.691223145
2023-02-15T09:43:46.768Z,5.671081543
2023-02-15T09:44:47.773Z,5.691223145
2023-02-15T09:45:48.316Z,5.731506348
2023-02-15T09:46:48.787Z,5.751647949
2023-02-15T09:48:19.897Z,5.802001953
2023-02-15T09:49:20.367Z,5.802001953
2023-02-15T09:50:21.741Z,5.812072754
2023-02-15T09:51:22.246Z,5.842285156
2023-02-15T09:52:23.763Z,5.842285156
2023-02-15T09:53:24.211Z,5.852355957
2023-02-15T09:54:24.676Z,5.882568359
2023-02-15T09:55:25.355Z,5.902709961
2023-02-15T09:56:26.070Z,5.953063965
2023-02-15T09:57:26.685Z,5.953063965
2023-02-15T09:58:28.330Z,5.983276367
2023-02-15T09:59:28.926Z,5.983276367
2023-02-15T10:00:29.449Z,5.983276367
2023-02-15T10:01:30.137Z,6.01348877
2023-02-15T10:02:31.642Z,6.02355957
2023-02-15T10:03:32.263Z,6.02355957
2023-02-15T10:04:32.872Z,6.053771973
2023-02-15T10:05:33.391Z,6.063842773
2023-02-15T10:06:33.960Z,6.104125977
2023-02-15T10:07:34.692Z,6.134338379
2023-02-15T10:08:35.120Z,6.114196777
2023-02-15T10:09:35.756Z,6.14440918
2023-02-15T10:10:36.322Z,6.174621582
2023-02-15T10:11:36.915Z,6.194763184
2023-02-15T10:12:38.278Z,6.204833984
2023-02-15T10:13:38.855Z,6.214904785
2023-02-15T10:14:39.445Z,6.265258789
2023-02-15T10:15:40.018Z,6.27532959
2023-02-15T10:16:41.067Z,6.27532959
2023-02-15T10:17:41.631Z,6.295471191
2023-02-15T10:18:45.022Z,6.325683594
2023-02-15T10:19:45.635Z,6.325683594
2023-02-15T10:20:46.799Z,6.345825195
2023-02-15T10:21:47.311Z,6.376037598
2023-02-15T10:22:48.703Z,6.396179199
2023-02-15T10:24:19.643Z,6.426391602
2023-02-15T10:25:20.172Z,6.446533203
2023-02-15T10:26:20.722Z,6.456604004
2023-02-15T10:27:21.340Z,6.496887207
2023-02-15T10:28:22.832Z,6.527099609
2023-02-15T10:29:23.422Z,6.547241211
2023-02-15T10:30:24.073Z,6.567382813
2023-02-15T10:31:24.791Z,6.597595215
2023-02-15T10:32:26.293Z,6.607666016
2023-02-15T10:33:26.857Z,6.637878418
2023-02-15T10:34:27.459Z,6.637878418
2023-02-15T10:35:27.980Z,6.647949219
2023-02-15T10:36:28.526Z,6.688232422
2023-02-15T10:37:29.013Z,6.728515625
2023-02-15T10:38:29.598Z,6.758728027
2023-02-15T10:39:30.205Z,6.778869629
2023-02-15T10:40:30.805Z,6.819152832
2023-02-15T10:41:31.410Z,6.829223633
2023-02-15T10:42:32.581Z,6.869506836
2023-02-15T10:43:33.212Z,6.899719238
2023-02-15T10:44:33.757Z,6.940002441
2023-02-15T10:45:35.302Z,6.960144043
2023-02-15T10:46:35.954Z,6.990356445
2023-02-15T10:47:36.445Z,7.000427246
2023-02-15T10:48:37.153Z,7.040710449
2023-02-15T10:49:37.692Z,7.05078125
2023-02-15T10:50:38.241Z,7.091064453
2023-02-15T10:51:38.740Z,7.111206055
2023-02-15T10:52:40.069Z,7.141418457
2023-02-15T10:53:40.872Z,7.18170166
2023-02-15T10:54:41.466Z,7.191772461
2023-02-15T10:55:42.633Z,7.242126465
2023-02-15T10:56:43.363Z,7.272338867
2023-02-15T10:57:43.892Z,7.30255127
2023-02-15T10:58:45.337Z,7.30255127
2023-02-15T10:59:45.931Z,7.332763672
2023-02-15T11:00:46.544Z,7.342834473
2023-02-15T11:01:47.348Z,7.373046875
2023-02-15T11:03:19.215Z,7.393188477